KPOV

Portage County Airport

Ravenna, Ohio, USA
METAR KPOV 200055Z AUTO 20009KT 170V230 10SM CLR 01/M08 A2992 RMK AO2 T00071085
Observed Flight Rules
Jan-20 @ 00:55 UTC (23 minutes ago) Visual Flight Rules
Wind Visibility Clouds
200° at 9 knots 10 miles
  • Clear skies
Temperatures Readings
Current 1°C / 34°F
Dewpoint -9°C / 16°F
Humidity 48%
Altimeter 29.92" Hg
Pressure 1013 hPa
Elevation 365
METAR KPOV 200055Z AUTO 20009KT 170V230 10SM CLR 01/M08 A2992 RMK AO2 T00071085
Observed Flight Rules
Jan-20 @ 00:55 UTC
(23 minutes ago)
VFR
Wind Visibility
200° at 9 knots 10 miles
Clouds
  • Clear skies
Temperature Dewpoint
1°C / 34°F -9°C / 16°F
Humidity Altimeter Pressure
48% 29.92" Hg 1013 hPa